Al Baha, Saudi Arabia

1:35 AM AST on August 22, 2014 (GMT +0300)
Al Baha | Change Station
CLOSE
Current Station
Airport
Location: Al Baha,
Elevation: 5420 ft
Nearby Weather Stations

Elev 5420 ft 20.30 °N, 41.63 °E | Updated 35 minutes ago

Clear
Clear
79 °F
Feels Like 79 °F
N
2
Wind Variable Wind from SSE

Today
High -- | Low -- °F
--% Chance of Precip.
Yesterday
High -- | Low -- °F
Precip. -- in
5:55 AM 6:37 PM
Waning Crescent, 12% visible
Pressure 30.04 in
Visibility -9999.0 miles
Clouds
Dew Point 46 °F
Humidity 32%
Rainfall 0.00 in
Snow Depth Not available.
UV Not available.
Pollen Not available.
Air Quality Not available.
Flu Activity Not available.
METAR OEBA 212200Z 15002KT CAVOK 26/08 Q1017 NOSIG

More Conditions Fewer Conditions

Pressure 30.04 in
Visibility -9999.0 miles
Clouds
Dew Point 46 °F
Humidity 32%
Rainfall 0.00 in
Snow Depth Not available.
UV Not available.
Pollen Not available.
Air Quality Not available.
Flu Activity Not available.
METAR OEBA 212200Z 15002KT CAVOK 26/08 Q1017 NOSIG

More Conditions Fewer Conditions

10-Day Weather Forecast

Almanac

Astronomy

Aug. 22, 2014 Rise Set
Actual Time 5:55 AM AST 6:37 PM AST
Civil Twilight 5:32 AM AST 7:00 PM AST
Nautical Twilight 5:05 AM AST 7:26 PM AST
Astronomical Twilight 4:38 AM AST 7:53 PM AST
Moon 3:09 AM AST (8/22) 4:23 PM AST (8/22)
Length of Visible Light 13h 27m
Length of Day
12h 42m
Tomorrow will be 1m 3s shorter.
Waning Crescent, 12% of the Moon is Illuminated
Aug 21
Waning Crescent
Aug 25
New
Sep 2
First Quarter
Sep 8
Full
Sep 15
Last Quarter

Yesterday's Extremes

Country Highs Country Lows

Community

WunderPhotos

Upload Photos

1,746,041 photos uploaded!

WunderBlogs® & News

Nearby

Snow Depth

Not available.

Earthquake Activity

City Distance Mag. Time & Date
No recent earthquake activity has been reported nearby.
Minimum magnitude displayed is 2.5.

Coastal Water Temperatures

Place Temperature
No Stations Reporting

Nearby Weather Stations